Cork, Ireland
Current Conditions -  °F | °C
As of 8:30 PM on Thursday 23 Oct 2014 (Local Time) from EICK Reporting Station
Broken Clouds Broken Clouds  
Wind Chill: 55°   Ceiling: 4000
Heat Index: 55°   Visibility: 6mi
Dew Point: 54°   Wind: 7mph
Humidity: 94%   Direction: 240°WSW
Pressure: 29.91"   Gusts: NA
Location:  51.9°N, 8.47°W
Report Text: EICK 232030Z 24006KT 9999 FEW008 SCT016 BKN040 13/12 Q1013 TEMPO 4000 BKN005
Loading
Personal Weather Stations






























Interactive Weather Map
Tropical Storm Tracking
New forecast layout! Learn more

10-Day Weather Forecast

Advertisements
Track Severe Weather on mobile